Time;durP1;ratioP1;P1;durP2;ratioP2;P2;SDS_P1;SDS_P2;PMS_P1;PMS_P2;Temp;Humidity;BMP_temperature;BMP_pressure;BME280_temperature;BME280_humidity;BME280_pressure;Samples;Min_cycle;Max_cycle;Signal;HPM_P1;HPM_P2
2023/12/04 14:32:19;;;;;;;1.35;0.90;;;;;;;;;;5061432;28;20387;-66
2023/12/04 14:34:45;;;;;;;1.35;0.77;;;;;;;;;;5063404;28;20037;-67
2023/12/04 14:37:10;;;;;;;1.20;0.77;;;;;;;;;;5063729;28;20677;-66
2023/12/04 14:39:35;;;;;;;1.42;0.80;;;;;;;;;;5063510;28;20021;-66
2023/12/04 14:42:01;;;;;;;1.48;0.90;;;;;;;;;;5062693;28;20043;-67
2023/12/04 14:44:26;;;;;;;1.67;0.80;;;;;;;;;;5062544;28;20047;-67
2023/12/04 14:46:51;;;;;;;2.05;1.35;;;;;;;;;;5063460;28;20032;-66
2023/12/04 14:49:17;;;;;;;3.45;1.17;;;;;;;;;;5063281;28;20040;-66
2023/12/04 14:51:47;;;;;;;2.08;1.00;;;;;;;;;;5062954;28;20032;-68
2023/12/04 14:54:21;;;;;;;1.80;1.10;;;;;;;;;;5057340;28;20064;-67
2023/12/04 15:07:46;;;;;;;6.03;1.10;;;;;;;;;;5064607;28;20047;-68
2023/12/04 15:15:40;;;;;;;1.85;1.10;;;;;;;;;;5062774;28;20369;-67
2023/12/04 15:20:49;;;;;;;1.58;1.00;;;;;;;;;;5065431;28;20032;-66
2023/12/04 15:23:16;;;;;;;1.63;1.10;;;;;;;;;;5056974;28;20041;-66
2023/12/04 15:25:42;;;;;;;2.38;1.27;;;;;;;;;;5057991;28;20034;-67
2023/12/04 15:28:07;;;;;;;2.05;1.27;;;;;;;;;;5069427;28;20044;-67
2023/12/04 15:30:34;;;;;;;3.65;1.25;;;;;;;;;;5058779;28;20098;-66
2023/12/04 15:32:59;;;;;;;2.28;1.30;;;;;;;;;;5060665;28;20106;-67
2023/12/04 15:35:24;;;;;;;1.20;0.85;;;;;;;;;;5063498;28;20040;-66
2023/12/04 15:37:50;;;;;;;2.40;1.38;;;;;;;;;;5070715;28;20162;-67
2023/12/04 15:40:15;;;;;;;2.55;1.42;;;;;;;;;;5064712;28;20036;-68
2023/12/04 15:42:40;;;;;;;2.22;1.27;;;;;;;;;;5058308;28;20114;-67
2023/12/04 15:45:06;;;;;;;2.13;1.30;;;;;;;;;;5048936;28;20036;-68
2023/12/04 15:47:31;;;;;;;2.40;1.40;;;;;;;;;;5047107;28;20039;-67
2023/12/04 15:49:57;;;;;;;2.47;1.35;;;;;;;;;;5051693;28;20074;-66
2023/12/04 15:52:25;;;;;;;2.33;1.25;;;;;;;;;;5059298;28;20701;-66
2023/12/04 15:54:51;;;;;;;7.28;1.50;;;;;;;;;;5051939;28;20036;-66
2023/12/04 15:57:17;;;;;;;2.58;1.17;;;;;;;;;;5048489;28;20066;-66
2023/12/04 15:59:44;;;;;;;1.98;1.20;;;;;;;;;;5055349;28;20546;-66
2023/12/04 16:02:09;;;;;;;2.55;1.23;;;;;;;;;;5048959;28;20120;-66
2023/12/04 16:04:35;;;;;;;4.43;1.10;;;;;;;;;;5049136;28;20120;-67
2023/12/04 16:07:00;;;;;;;1.73;1.10;;;;;;;;;;5047435;28;20106;-66
2023/12/04 16:09:26;;;;;;;2.00;1.20;;;;;;;;;;5052672;28;20044;-68
2023/12/04 16:11:51;;;;;;;2.20;1.30;;;;;;;;;;5053045;28;20045;-67
2023/12/04 16:14:16;;;;;;;1.27;0.90;;;;;;;;;;5053057;28;20051;-67
2023/12/04 16:16:42;;;;;;;1.88;1.10;;;;;;;;;;5059318;28;20036;-67
2023/12/04 16:19:07;;;;;;;3.13;1.10;;;;;;;;;;5054285;28;20076;-66
2023/12/04 16:21:33;;;;;;;2.38;1.30;;;;;;;;;;5048103;28;20071;-66
2023/12/04 16:24:01;;;;;;;3.55;1.05;;;;;;;;;;5058434;28;20040;-67
2023/12/04 16:26:27;;;;;;;2.55;1.15;;;;;;;;;;5042674;28;20028;-66
2023/12/04 16:28:52;;;;;;;2.55;1.20;;;;;;;;;;5043734;28;20037;-68
2023/12/04 16:31:19;;;;;;;2.22;1.30;;;;;;;;;;5047819;28;20049;-66
2023/12/04 16:33:44;;;;;;;1.85;1.25;;;;;;;;;;5048634;28;20107;-67
2023/12/04 16:36:10;;;;;;;2.67;1.50;;;;;;;;;;5060130;28;20121;-67
2023/12/04 16:38:36;;;;;;;2.42;1.50;;;;;;;;;;5048668;28;20037;-66
2023/12/04 16:41:01;;;;;;;2.58;1.50;;;;;;;;;;5046972;28;20256;-67
2023/12/04 16:43:27;;;;;;;2.67;1.38;;;;;;;;;;5048154;28;20041;-66
2023/12/04 16:45:53;;;;;;;2.17;1.30;;;;;;;;;;5054229;28;20056;-67
2023/12/04 16:48:19;;;;;;;2.22;1.48;;;;;;;;;;5060438;28;20120;-66
2023/12/04 16:50:44;;;;;;;3.72;1.95;;;;;;;;;;5054147;28;20128;-66
2023/12/04 16:53:11;;;;;;;2.70;1.60;;;;;;;;;;5047517;28;20040;-67
2023/12/04 16:55:36;;;;;;;2.63;1.40;;;;;;;;;;5047199;28;20029;-67
2023/12/04 16:58:04;;;;;;;4.68;1.63;;;;;;;;;;5046090;28;20396;-67
2023/12/04 17:00:30;;;;;;;3.45;1.85;;;;;;;;;;5045966;28;20025;-67
2023/12/04 17:02:55;;;;;;;2.97;1.92;;;;;;;;;;5048378;28;20040;-66
2023/12/04 17:05:20;;;;;;;2.75;1.58;;;;;;;;;;5048533;28;20045;-67
2023/12/04 17:07:46;;;;;;;3.85;2.28;;;;;;;;;;5046375;28;20480;-66
2023/12/04 17:10:11;;;;;;;5.07;1.92;;;;;;;;;;5047862;28;20036;-68
2023/12/04 17:12:43;;;;;;;3.88;2.28;;;;;;;;;;5047454;28;20472;-67
2023/12/04 17:15:13;;;;;;;4.13;2.25;;;;;;;;;;5047468;28;20036;-66
2023/12/04 17:17:38;;;;;;;3.58;2.15;;;;;;;;;;5048922;28;20041;-66
2023/12/04 17:20:06;;;;;;;4.32;2.60;;;;;;;;;;5040666;28;20401;-67
2023/12/04 17:22:32;;;;;;;5.22;2.53;;;;;;;;;;5046861;28;20128;-67
2023/12/04 17:24:58;;;;;;;4.32;2.72;;;;;;;;;;5049480;28;20037;-67
2023/12/04 17:27:23;;;;;;;3.65;1.88;;;;;;;;;;5050357;28;20040;-67
2023/12/04 17:29:49;;;;;;;4.55;2.55;;;;;;;;;;5049790;28;20033;-66
2023/12/04 17:32:14;;;;;;;4.22;2.67;;;;;;;;;;5038198;28;20140;-66
2023/12/04 17:34:39;;;;;;;5.65;3.30;;;;;;;;;;5046588;28;20033;-66
2023/12/04 17:37:05;;;;;;;5.05;2.65;;;;;;;;;;5047012;28;20033;-67
2023/12/04 17:39:30;;;;;;;5.63;2.88;;;;;;;;;;5045891;28;20114;-68
2023/12/04 17:41:56;;;;;;;4.82;3.03;;;;;;;;;;5047217;28;20037;-67
2023/12/04 17:44:21;;;;;;;5.10;3.13;;;;;;;;;;5045539;28;20104;-67
2023/12/04 17:46:47;;;;;;;5.25;2.92;;;;;;;;;;5046600;28;20127;-68
2023/12/04 17:49:13;;;;;;;4.75;3.13;;;;;;;;;;5049194;28;20045;-66
2023/12/04 17:51:39;;;;;;;5.38;2.85;;;;;;;;;;5048188;28;20041;-68
2023/12/04 17:54:04;;;;;;;7.60;3.42;;;;;;;;;;5048691;28;20127;-66
2023/12/04 17:56:30;;;;;;;5.05;3.15;;;;;;;;;;5047257;28;20037;-67
2023/12/04 17:58:55;;;;;;;5.68;3.20;;;;;;;;;;5044979;28;20041;-68
2023/12/04 18:01:20;;;;;;;8.27;2.85;;;;;;;;;;5045817;28;20033;-67
2023/12/04 18:03:46;;;;;;;4.72;3.08;;;;;;;;;;5045902;28;20037;-67
2023/12/04 18:06:14;;;;;;;4.22;2.85;;;;;;;;;;5045206;28;20111;-67
2023/12/04 18:08:42;;;;;;;5.75;3.40;;;;;;;;;;5045847;28;20511;-67
2023/12/04 18:11:07;;;;;;;6.20;3.90;;;;;;;;;;5048668;28;20049;-66
2023/12/04 18:13:33;;;;;;;5.28;3.63;;;;;;;;;;5039923;28;20395;-66
2023/12/04 18:15:59;;;;;;;3.85;2.33;;;;;;;;;;5043582;28;20035;-66
2023/12/04 18:18:24;;;;;;;6.32;3.67;;;;;;;;;;5045147;28;20338;-66
2023/12/04 18:20:51;;;;;;;5.03;2.95;;;;;;;;;;5045896;28;20085;-67
2023/12/04 18:23:17;;;;;;;7.22;3.90;;;;;;;;;;5046393;28;20047;-66
2023/12/04 18:25:42;;;;;;;9.80;4.18;;;;;;;;;;5046135;28;20041;-67
2023/12/04 18:28:10;;;;;;;5.68;3.28;;;;;;;;;;5047077;28;20036;-66
2023/12/04 18:30:36;;;;;;;7.57;4.18;;;;;;;;;;5046303;28;20128;-66
2023/12/04 18:33:02;;;;;;;6.25;3.63;;;;;;;;;;5046405;28;20032;-66
2023/12/04 18:35:28;;;;;;;5.55;3.63;;;;;;;;;;5046228;28;20684;-66
2023/12/04 18:38:02;;;;;;;5.68;3.28;;;;;;;;;;5045221;28;20124;-67
2023/12/04 18:40:28;;;;;;;7.00;3.88;;;;;;;;;;5046247;28;20119;-66
2023/12/04 18:42:53;;;;;;;7.60;4.15;;;;;;;;;;5046286;28;20115;-66
2023/12/04 18:45:19;;;;;;;7.78;3.92;;;;;;;;;;5046357;28;20484;-67
2023/12/04 18:47:50;;;;;;;7.78;4.30;;;;;;;;;;5041625;28;20021;-67
2023/12/04 18:50:15;;;;;;;6.88;4.32;;;;;;;;;;5045823;28;20234;-66
2023/12/04 18:52:41;;;;;;;8.07;4.57;;;;;;;;;;5046499;28;20435;-66
2023/12/04 18:55:07;;;;;;;7.78;4.15;;;;;;;;;;5045721;28;20033;-66
2023/12/04 18:57:32;;;;;;;8.25;4.82;;;;;;;;;;5046328;28;20041;-66
2023/12/04 18:59:58;;;;;;;6.30;4.22;;;;;;;;;;5046552;28;20158;-66
2023/12/04 19:02:23;;;;;;;5.50;3.58;;;;;;;;;;5045906;28;20486;-67
2023/12/04 19:04:48;;;;;;;6.70;4.22;;;;;;;;;;5046046;28;20033;-67
2023/12/04 19:07:14;;;;;;;7.40;4.43;;;;;;;;;;5046008;28;20570;-67
2023/12/04 19:09:39;;;;;;;7.13;4.05;;;;;;;;;;5045804;28;20044;-66
2023/12/04 19:12:05;;;;;;;8.20;4.55;;;;;;;;;;5046232;28;20056;-66
2023/12/04 19:14:30;;;;;;;5.68;3.80;;;;;;;;;;5045972;28;20045;-66
2023/12/04 19:16:56;;;;;;;7.18;4.65;;;;;;;;;;5045622;28;20049;-66
2023/12/04 19:19:21;;;;;;;6.90;4.20;;;;;;;;;;5049963;28;20047;-67
2023/12/04 19:21:46;;;;;;;11.25;4.85;;;;;;;;;;5049389;28;20037;-67
2023/12/04 19:24:12;;;;;;;7.70;3.97;;;;;;;;;;5050052;28;20036;-66
2023/12/04 19:26:37;;;;;;;8.55;4.80;;;;;;;;;;5048813;28;20047;-66
2023/12/04 19:29:02;;;;;;;4.85;3.20;;;;;;;;;;5049613;28;20037;-67
2023/12/04 19:31:28;;;;;;;9.32;4.75;;;;;;;;;;5048555;28;20051;-66
2023/12/04 19:33:53;;;;;;;9.75;5.30;;;;;;;;;;5049397;28;20110;-66
2023/12/04 19:36:18;;;;;;;8.25;4.97;;;;;;;;;;5049966;28;20635;-66
2023/12/04 19:38:44;;;;;;;8.98;5.13;;;;;;;;;;5049358;28;20938;-67
2023/12/04 19:41:09;;;;;;;9.32;4.88;;;;;;;;;;5047722;28;20485;-66
2023/12/04 19:43:34;;;;;;;8.18;5.07;;;;;;;;;;5049686;28;20048;-67
2023/12/04 19:46:03;;;;;;;8.60;5.45;;;;;;;;;;5049430;28;20033;-68
2023/12/04 19:48:29;;;;;;;8.05;4.97;;;;;;;;;;5048498;28;20049;-66
2023/12/04 19:50:54;;;;;;;6.88;4.40;;;;;;;;;;5048904;28;20067;-67
2023/12/04 19:53:20;;;;;;;12.23;5.53;;;;;;;;;;5049209;28;20491;-66
2023/12/04 19:55:45;;;;;;;11.48;4.90;;;;;;;;;;5048815;28;20029;-66
2023/12/04 19:58:10;;;;;;;8.82;4.72;;;;;;;;;;5049181;28;20041;-66
2023/12/04 20:00:36;;;;;;;7.05;4.43;;;;;;;;;;5049523;28;20021;-67
2023/12/04 20:03:01;;;;;;;6.95;4.40;;;;;;;;;;5048885;28;20116;-67
2023/12/04 20:05:27;;;;;;;11.15;5.32;;;;;;;;;;5049034;28;20102;-66
2023/12/04 20:07:52;;;;;;;10.32;4.88;;;;;;;;;;5047810;28;20729;-67
2023/12/04 20:10:18;;;;;;;8.35;4.80;;;;;;;;;;5048428;28;20973;-66
2023/12/04 20:12:44;;;;;;;8.77;4.90;;;;;;;;;;5049729;28;20039;-66
2023/12/04 20:15:09;;;;;;;9.65;5.53;;;;;;;;;;5048210;28;20406;-66
2023/12/04 20:17:36;;;;;;;8.77;4.78;;;;;;;;;;5048604;28;20044;-67
2023/12/04 20:20:02;;;;;;;7.47;4.53;;;;;;;;;;5048810;28;20037;-67
2023/12/04 20:22:27;;;;;;;8.77;5.35;;;;;;;;;;5047382;28;20025;-66
2023/12/04 20:24:52;;;;;;;9.57;4.95;;;;;;;;;;5049079;28;20041;-67
2023/12/04 20:27:18;;;;;;;6.82;4.07;;;;;;;;;;5050834;28;20047;-66
2023/12/04 20:29:43;;;;;;;7.53;4.60;;;;;;;;;;5049462;28;20495;-67
2023/12/04 20:32:09;;;;;;;8.18;4.72;;;;;;;;;;5051336;28;20057;-66
2023/12/04 20:34:34;;;;;;;7.05;4.78;;;;;;;;;;5051497;28;20041;-66
2023/12/04 20:37:01;;;;;;;8.95;5.43;;;;;;;;;;5049080;28;20027;-67
2023/12/04 20:39:26;;;;;;;7.43;4.75;;;;;;;;;;5055024;28;20108;-67
2023/12/04 20:41:52;;;;;;;8.18;5.10;;;;;;;;;;5055584;28;20116;-67
2023/12/04 20:44:17;;;;;;;11.65;4.70;;;;;;;;;;5055790;28;20086;-66
2023/12/04 20:46:43;;;;;;;6.80;4.03;;;;;;;;;;5057716;28;20044;-67
2023/12/04 20:49:08;;;;;;;8.40;4.47;;;;;;;;;;5051502;28;20044;-67
2023/12/04 20:51:33;;;;;;;7.65;4.80;;;;;;;;;;5051237;28;20060;-66
2023/12/04 20:53:59;;;;;;;9.00;4.57;;;;;;;;;;5051691;28;20044;-67
2023/12/04 20:56:24;;;;;;;8.80;4.88;;;;;;;;;;5038826;28;21358;-66
2023/12/04 20:58:50;;;;;;;6.28;4.00;;;;;;;;;;5054425;28;20036;-67
2023/12/04 21:01:16;;;;;;;5.10;3.28;;;;;;;;;;5028683;28;20047;-66
2023/12/04 21:03:42;;;;;;;7.75;4.25;;;;;;;;;;5050496;28;20388;-67
2023/12/04 21:06:08;;;;;;;6.60;4.07;;;;;;;;;;5051606;28;20040;-66
2023/12/04 21:08:33;;;;;;;6.18;3.95;;;;;;;;;;5050425;28;20073;-66
2023/12/04 21:10:58;;;;;;;7.50;3.92;;;;;;;;;;5044367;28;20679;-66
2023/12/04 21:13:23;;;;;;;9.05;4.15;;;;;;;;;;5055183;28;20032;-65
2023/12/04 21:15:49;;;;;;;10.88;4.82;;;;;;;;;;5052976;28;20120;-66
2023/12/04 21:18:14;;;;;;;9.52;4.30;;;;;;;;;;5042317;28;20507;-67
2023/12/04 21:20:40;;;;;;;7.60;4.47;;;;;;;;;;5050471;28;20029;-67
2023/12/04 21:23:07;;;;;;;5.57;3.85;;;;;;;;;;5051595;28;20069;-67
2023/12/04 21:25:33;;;;;;;8.30;4.60;;;;;;;;;;5050296;28;20644;-67
2023/12/04 21:27:58;;;;;;;6.90;4.20;;;;;;;;;;5051770;28;20024;-67
2023/12/04 21:30:23;;;;;;;7.85;4.18;;;;;;;;;;5050426;28;20453;-67
2023/12/04 21:32:49;;;;;;;8.43;5.00;;;;;;;;;;5043795;28;20406;-67
2023/12/04 21:35:14;;;;;;;9.27;4.45;;;;;;;;;;5043740;28;20079;-66
2023/12/04 21:37:39;;;;;;;9.95;4.80;;;;;;;;;;5050762;28;20041;-66
2023/12/04 21:40:05;;;;;;;9.25;4.85;;;;;;;;;;5050518;28;20090;-66
2023/12/04 21:42:31;;;;;;;8.82;4.55;;;;;;;;;;5045827;28;20480;-66
2023/12/04 21:44:56;;;;;;;8.68;5.05;;;;;;;;;;5049450;28;20059;-66
2023/12/04 21:47:22;;;;;;;8.48;5.40;;;;;;;;;;5050457;28;20049;-66
2023/12/04 21:49:47;;;;;;;11.73;5.50;;;;;;;;;;5050995;28;20522;-67
2023/12/04 21:52:12;;;;;;;8.95;5.65;;;;;;;;;;5050362;28;20141;-67
2023/12/04 21:54:38;;;;;;;10.65;5.38;;;;;;;;;;5050733;28;20083;-66
2023/12/04 21:57:03;;;;;;;11.30;5.65;;;;;;;;;;5050426;28;20469;-66
2023/12/04 21:59:28;;;;;;;9.23;5.45;;;;;;;;;;5047698;28;20032;-67
2023/12/04 22:01:54;;;;;;;9.30;5.28;;;;;;;;;;5049838;28;20051;-66
2023/12/04 22:04:20;;;;;;;12.00;5.82;;;;;;;;;;5050195;28;20048;-66
2023/12/04 22:06:45;;;;;;;8.93;5.45;;;;;;;;;;5050391;28;20044;-67
2023/12/04 22:09:11;;;;;;;12.20;6.40;;;;;;;;;;5049702;28;20045;-66
2023/12/04 22:11:36;;;;;;;9.00;5.20;;;;;;;;;;5048374;28;20037;-66
2023/12/04 22:14:01;;;;;;;9.68;6.28;;;;;;;;;;5050164;28;20485;-67
2023/12/04 22:16:27;;;;;;;11.18;6.00;;;;;;;;;;5045943;28;20091;-66
2023/12/04 22:18:52;;;;;;;11.38;5.82;;;;;;;;;;5050041;28;20041;-67
2023/12/04 22:21:20;;;;;;;9.85;5.85;;;;;;;;;;5049108;28;20037;-66
2023/12/04 22:23:45;;;;;;;11.70;6.35;;;;;;;;;;5043947;28;20515;-66
2023/12/04 22:26:11;;;;;;;14.85;6.47;;;;;;;;;;5049325;28;20065;-67
2023/12/04 22:28:37;;;;;;;15.20;6.63;;;;;;;;;;5049775;28;20041;-66
2023/12/04 22:31:02;;;;;;;11.32;6.85;;;;;;;;;;5048412;28;20442;-66
2023/12/04 22:33:27;;;;;;;10.50;6.20;;;;;;;;;;5049583;28;20611;-66
2023/12/04 22:35:53;;;;;;;6.35;4.03;;;;;;;;;;5050120;28;20029;-67
2023/12/04 22:38:18;;;;;;;9.63;5.30;;;;;;;;;;5049973;28;20465;-68
2023/12/04 22:40:44;;;;;;;11.15;6.40;;;;;;;;;;5050109;28;20476;-67
2023/12/04 22:43:09;;;;;;;8.05;4.72;;;;;;;;;;5049993;28;20033;-66
2023/12/04 22:45:34;;;;;;;13.95;6.25;;;;;;;;;;5050061;28;20120;-67
2023/12/04 22:48:00;;;;;;;11.60;6.13;;;;;;;;;;5049716;28;20159;-67
2023/12/04 22:50:25;;;;;;;9.77;6.07;;;;;;;;;;5049702;28;20060;-66
2023/12/04 22:52:50;;;;;;;11.63;7.07;;;;;;;;;;5046321;28;20046;-67
2023/12/04 22:55:17;;;;;;;11.70;7.20;;;;;;;;;;5049743;28;20071;-66
2023/12/04 22:57:43;;;;;;;10.73;6.72;;;;;;;;;;5049718;28;20044;-66
2023/12/04 23:00:11;;;;;;;12.77;7.32;;;;;;;;;;5053598;28;20040;-66
2023/12/04 23:02:38;;;;;;;12.07;7.43;;;;;;;;;;5051102;28;20504;-66
2023/12/04 23:05:03;;;;;;;14.10;8.27;;;;;;;;;;5044637;28;20040;-66
2023/12/04 23:07:29;;;;;;;15.48;7.80;;;;;;;;;;5053269;28;20496;-66
2023/12/04 23:09:54;;;;;;;17.73;9.38;;;;;;;;;;5053629;28;20445;-66
2023/12/04 23:12:19;;;;;;;13.05;6.68;;;;;;;;;;5053517;28;20471;-66
2023/12/04 23:14:45;;;;;;;15.93;8.38;;;;;;;;;;5053685;28;20041;-66
2023/12/04 23:17:10;;;;;;;15.38;9.10;;;;;;;;;;5053728;28;20094;-66
2023/12/04 23:19:35;;;;;;;13.75;8.63;;;;;;;;;;5053671;28;20043;-66
2023/12/04 23:22:01;;;;;;;17.08;8.43;;;;;;;;;;5052722;28;20033;-66
2023/12/04 23:24:26;;;;;;;15.40;8.55;;;;;;;;;;5043512;28;20033;-66
2023/12/04 23:26:51;;;;;;;14.70;9.18;;;;;;;;;;5053284;28;20045;-67
2023/12/04 23:29:17;;;;;;;18.23;8.15;;;;;;;;;;5053235;28;20068;-66
2023/12/04 23:31:43;;;;;;;14.00;9.23;;;;;;;;;;5052808;28;20079;-67
2023/12/04 23:34:08;;;;;;;13.93;8.43;;;;;;;;;;5053133;28;20037;-66
2023/12/04 23:36:33;;;;;;;15.00;8.38;;;;;;;;;;5049376;28;20552;-66
2023/12/04 23:38:59;;;;;;;14.57;8.68;;;;;;;;;;5053368;28;20083;-66
2023/12/04 23:41:24;;;;;;;15.48;8.30;;;;;;;;;;5052951;28;20079;-66
2023/12/04 23:43:50;;;;;;;13.82;7.90;;;;;;;;;;5052998;28;20094;-66
2023/12/04 23:46:15;;;;;;;12.90;7.78;;;;;;;;;;5046166;28;20038;-66
2023/12/04 23:48:41;;;;;;;13.63;7.82;;;;;;;;;;5048525;28;20052;-66
2023/12/04 23:51:07;;;;;;;10.40;6.75;;;;;;;;;;5052626;28;20044;-67
2023/12/04 23:53:33;;;;;;;7.97;5.32;;;;;;;;;;5052943;28;20495;-66
2023/12/04 23:55:58;;;;;;;14.70;7.60;;;;;;;;;;5052700;28;20118;-66
2023/12/04 23:58:23;;;;;;;12.73;8.10;;;;;;;;;;5052497;28;20052;-66
